createdAt,value
2019-04-28T00:02:22.482Z,54.00
2019-04-28T00:04:51.467Z,54.30
2019-04-28T00:07:21.575Z,54.40
2019-04-28T00:09:51.122Z,54.60
2019-04-28T00:12:21.016Z,54.90
2019-04-28T00:14:51.624Z,55.20
2019-04-28T00:17:21.162Z,55.40
2019-04-28T00:19:51.480Z,55.50
2019-04-28T00:22:28.002Z,55.50
2019-04-28T00:25:01.635Z,55.50
2019-04-28T00:27:31.607Z,55.90
2019-04-28T00:30:01.972Z,56.10
2019-04-28T00:32:32.500Z,55.90
2019-04-28T00:35:02.334Z,56.00
2019-04-28T00:37:32.183Z,56.20
2019-04-28T00:40:01.197Z,56.40
2019-04-28T00:42:31.501Z,56.80
2019-04-28T00:45:01.585Z,56.90
2019-04-28T00:47:31.141Z,57.20
2019-04-28T00:50:01.957Z,57.40
2019-04-28T00:52:32.028Z,57.20
2019-04-28T00:55:01.160Z,57.00
2019-04-28T00:57:30.967Z,56.70
2019-04-28T01:00:02.105Z,57.10
2019-04-28T01:02:34.523Z,57.00
2019-04-28T01:05:03.269Z,57.20
2019-04-28T01:07:33.072Z,57.30
2019-04-28T01:10:01.937Z,57.80
2019-04-28T01:12:31.093Z,57.60
2019-04-28T01:15:02.630Z,57.50
2019-04-28T01:17:44.041Z,57.60
2019-04-28T01:20:14.428Z,58.20
2019-04-28T01:22:43.251Z,58.10
2019-04-28T01:25:12.287Z,58.30
2019-04-28T01:27:42.675Z,58.40
2019-04-28T01:30:14.260Z,58.20
2019-04-28T01:32:44.577Z,58.50
2019-04-28T01:35:13.323Z,58.60
2019-04-28T01:37:42.001Z,59.00
2019-04-28T01:40:10.851Z,59.20
2019-04-28T01:42:41.281Z,59.50
2019-04-28T01:45:10.607Z,59.30
2019-04-28T01:47:40.497Z,59.30
2019-04-28T01:50:10.231Z,59.60
2019-04-28T01:52:39.938Z,59.90
2019-04-28T01:55:10.166Z,59.40
2019-04-28T01:57:39.965Z,59.80
2019-04-28T02:00:22.336Z,59.30
2019-04-28T02:02:42.131Z,59.90
2019-04-28T02:05:11.169Z,59.80
2019-04-28T02:07:40.719Z,59.80
2019-04-28T02:10:10.292Z,60.00
2019-04-28T02:12:40.361Z,60.10
2019-04-28T02:15:10.445Z,60.30
2019-04-28T02:17:40.124Z,60.30
2019-04-28T02:20:10.387Z,60.50
2019-04-28T02:22:46.944Z,60.70
2019-04-28T02:25:15.765Z,60.70
2019-04-28T02:27:44.513Z,61.10
2019-04-28T02:30:13.281Z,61.30
2019-04-28T02:32:42.519Z,61.40
2019-04-28T02:35:11.348Z,61.60
2019-04-28T02:37:40.688Z,61.60
2019-04-28T02:40:10.854Z,61.80
2019-04-28T02:42:40.993Z,62.00
2019-04-28T02:45:11.576Z,62.20
2019-04-28T02:47:41.946Z,62.50
2019-04-28T02:50:20.925Z,62.50
2019-04-28T02:53:06.451Z,62.30
2019-04-28T02:55:35.193Z,62.50
2019-04-28T02:58:03.878Z,62.70
2019-04-28T03:00:32.618Z,62.60
2019-04-28T03:03:01.652Z,63.00
2019-04-28T03:05:33.296Z,62.90
2019-04-28T03:08:01.300Z,63.20
2019-04-28T03:10:31.081Z,63.70
2019-04-28T03:13:01.062Z,62.90
2019-04-28T03:15:30.576Z,63.00
2019-04-28T03:18:01.701Z,63.50
2019-04-28T03:20:30.751Z,63.00
2019-04-28T03:23:00.994Z,62.90
2019-04-28T03:25:37.241Z,62.80
2019-04-28T03:28:07.632Z,62.50
2019-04-28T03:30:53.999Z,62.30
2019-04-28T03:33:25.469Z,62.50
2019-04-28T03:35:53.570Z,62.80
2019-04-28T03:38:22.432Z,63.00
2019-04-28T03:40:51.402Z,62.40
2019-04-28T03:43:21.164Z,62.30
2019-04-28T03:45:57.424Z,62.30
2019-04-28T03:48:26.173Z,62.00
2019-04-28T03:50:54.922Z,62.20
2019-04-28T03:53:23.606Z,62.30
2019-04-28T03:55:52.348Z,63.10
2019-04-28T03:58:23.702Z,62.00
2019-04-28T04:00:51.357Z,62.70
2019-04-28T04:03:20.973Z,61.80
2019-04-28T04:05:50.877Z,62.70
2019-04-28T04:08:20.833Z,61.70
2019-04-28T04:10:54.490Z,61.60
2019-04-28T04:13:33.752Z,61.80
2019-04-28T04:16:20.661Z,61.50
2019-04-28T04:18:53.686Z,61.40
2019-04-28T04:21:21.678Z,61.70
2019-04-28T04:23:50.940Z,61.70
2019-04-28T04:26:21.320Z,61.30
2019-04-28T04:28:51.459Z,61.40
2019-04-28T04:31:20.578Z,61.40
2019-04-28T04:33:50.599Z,61.20
2019-04-28T04:36:21.161Z,60.50
2019-04-28T04:38:51.377Z,60.00
2019-04-28T04:41:20.718Z,59.70
2019-04-28T04:43:51.286Z,59.60
2019-04-28T04:46:22.313Z,59.80
2019-04-28T04:48:51.382Z,59.60
2019-04-28T04:51:21.304Z,59.70
2019-04-28T04:53:51.207Z,59.30
2019-04-28T04:56:21.270Z,58.60
2019-04-28T04:58:50.548Z,58.80
2019-04-28T05:01:30.464Z,58.00
2019-04-28T05:04:06.529Z,57.00
2019-04-28T05:06:39.967Z,57.20
2019-04-28T05:09:10.284Z,56.30
2019-04-28T05:11:40.040Z,54.70
2019-04-28T05:14:11.600Z,53.30
2019-04-28T05:16:39.800Z,53.30
2019-04-28T05:19:10.128Z,52.50
2019-04-28T05:21:40.099Z,51.50
2019-04-28T05:24:15.668Z,51.00
2019-04-28T05:26:47.425Z,49.90
2019-04-28T05:29:11.916Z,49.10
2019-04-28T05:31:40.736Z,49.00
2019-04-28T05:34:11.553Z,48.20
2019-04-28T05:36:44.409Z,48.70
2019-04-28T05:39:10.496Z,48.90
2019-04-28T05:41:39.996Z,49.00
2019-04-28T05:44:10.080Z,48.50
2019-04-28T05:46:40.235Z,47.80
2019-04-28T05:49:19.576Z,48.30
2019-04-28T05:51:50.460Z,47.90
2019-04-28T05:54:36.040Z,47.70
2019-04-28T05:57:06.434Z,47.90
2019-04-28T05:59:50.017Z,47.70
2019-04-28T06:02:21.781Z,47.50
2019-04-28T06:04:50.696Z,46.90
2019-04-28T06:07:30.509Z,47.30
2019-04-28T06:10:00.134Z,47.00
2019-04-28T06:12:30.248Z,46.40
2019-04-28T06:15:00.152Z,46.10
2019-04-28T06:17:29.487Z,45.70
2019-04-28T06:20:00.064Z,45.20
2019-04-28T06:22:28.630Z,45.20
2019-04-28T06:24:57.333Z,45.10
2019-04-28T06:27:26.008Z,44.00
2019-04-28T06:29:54.684Z,43.60
2019-04-28T06:32:23.441Z,43.70
2019-04-28T06:34:52.118Z,43.80
2019-04-28T06:37:20.837Z,43.20
2019-04-28T06:39:49.640Z,43.70
2019-04-28T06:42:18.317Z,43.60
2019-04-28T06:44:46.995Z,43.00
2019-04-28T06:47:16.948Z,40.60
2019-04-28T06:49:45.717Z,40.00
2019-04-28T06:52:14.391Z,39.10
2019-04-28T06:54:43.082Z,39.40
2019-04-28T06:57:11.770Z,38.90
2019-04-28T06:59:40.442Z,38.90
2019-04-28T07:02:09.053Z,36.80
2019-04-28T07:04:37.796Z,37.10
2019-04-28T07:07:06.488Z,36.10
2019-04-28T07:09:35.238Z,35.70
2019-04-28T07:12:03.924Z,36.20
2019-04-28T07:14:32.620Z,36.70
2019-04-28T07:17:01.305Z,37.20
2019-04-28T07:19:29.976Z,36.40
2019-04-28T07:22:15.135Z,36.00
2019-04-28T07:24:44.946Z,36.30
2019-04-28T07:27:13.730Z,36.50
2019-04-28T07:29:42.408Z,34.90
2019-04-28T07:32:12.272Z,34.90
2019-04-28T07:34:40.953Z,35.50
2019-04-28T07:37:09.638Z,35.00
2019-04-28T07:39:38.326Z,34.70
2019-04-28T07:42:06.996Z,35.20
2019-04-28T07:44:35.753Z,35.30
2019-04-28T07:47:04.963Z,35.10
2019-04-28T07:49:33.716Z,35.50
2019-04-28T07:52:16.249Z,35.30
2019-04-28T07:54:44.932Z,35.60
2019-04-28T07:57:13.612Z,35.50
2019-04-28T07:59:42.297Z,35.90
2019-04-28T08:02:11.123Z,35.70
2019-04-28T08:04:39.810Z,35.00
2019-04-28T08:07:08.475Z,35.60
2019-04-28T08:09:38.761Z,35.30
2019-04-28T08:12:07.740Z,35.70
2019-04-28T08:14:36.459Z,35.30
2019-04-28T08:17:05.230Z,35.60
2019-04-28T08:19:33.969Z,35.40
2019-04-28T08:22:02.658Z,35.30
2019-04-28T08:24:31.418Z,34.70
2019-04-28T08:27:00.162Z,34.60
2019-04-28T08:29:28.849Z,35.10
2019-04-28T08:32:04.714Z,34.20
2019-04-28T08:34:33.469Z,33.60
2019-04-28T08:37:02.146Z,34.20
2019-04-28T08:39:30.836Z,34.60
2019-04-28T08:41:59.512Z,34.30
2019-04-28T08:44:28.262Z,34.10
2019-04-28T08:46:56.940Z,33.80
2019-04-28T08:49:25.624Z,33.80
2019-04-28T08:51:54.305Z,33.70
2019-04-28T08:54:22.983Z,33.60
2019-04-28T08:56:51.738Z,33.80
2019-04-28T08:59:20.423Z,33.60
2019-04-28T09:01:49.179Z,33.60
2019-04-28T09:04:17.967Z,32.90
2019-04-28T09:06:46.633Z,33.20
2019-04-28T09:09:17.029Z,33.30
2019-04-28T09:11:45.699Z,34.80
2019-04-28T09:14:14.466Z,33.80
2019-04-28T09:16:43.146Z,31.80
2019-04-28T09:19:11.823Z,31.70
2019-04-28T09:21:40.506Z,32.30
2019-04-28T09:24:09.429Z,32.30
2019-04-28T09:26:38.196Z,32.40
2019-04-28T09:29:06.881Z,32.30
2019-04-28T09:31:35.685Z,32.20
2019-04-28T09:34:05.340Z,32.40
2019-04-28T09:36:34.109Z,32.00
2019-04-28T09:39:04.421Z,32.30
2019-04-28T09:41:33.564Z,32.30
2019-04-28T09:44:03.876Z,32.00
2019-04-28T09:46:34.200Z,31.50
2019-04-28T09:49:02.945Z,32.30
2019-04-28T09:51:31.698Z,32.10
2019-04-28T09:54:00.377Z,32.40
2019-04-28T09:56:29.136Z,32.30
2019-04-28T09:58:57.893Z,32.10
2019-04-28T10:01:26.638Z,32.40
2019-04-28T10:03:55.317Z,32.20
2019-04-28T10:06:24.002Z,32.00
2019-04-28T10:08:52.701Z,32.40
2019-04-28T10:11:30.335Z,32.30
2019-04-28T10:13:51.824Z,31.50
2019-04-28T10:16:20.753Z,30.80
2019-04-28T10:18:49.678Z,31.00
2019-04-28T10:21:18.441Z,31.00
2019-04-28T10:23:47.178Z,31.30
2019-04-28T10:26:15.945Z,31.50
2019-04-28T10:28:44.628Z,31.20
2019-04-28T10:31:13.582Z,31.30
2019-04-28T10:33:43.897Z,31.20
2019-04-28T10:36:12.657Z,31.50
2019-04-28T10:38:42.966Z,32.00
2019-04-28T10:41:13.286Z,31.80
2019-04-28T10:43:42.032Z,31.90
2019-04-28T10:46:10.794Z,31.50
2019-04-28T10:48:39.468Z,32.70
2019-04-28T10:51:08.225Z,32.00
2019-04-28T10:53:36.980Z,31.70
2019-04-28T10:56:05.670Z,31.60
2019-04-28T10:58:34.426Z,31.70
2019-04-28T11:01:03.252Z,31.50
2019-04-28T11:03:31.937Z,31.70
2019-04-28T11:06:00.616Z,32.60
2019-04-28T11:08:42.737Z,32.20
2019-04-28T11:11:13.120Z,32.60
2019-04-28T11:13:41.798Z,30.80
2019-04-28T11:16:12.194Z,31.30
2019-04-28T11:18:40.942Z,31.40
2019-04-28T11:21:09.617Z,33.40
2019-04-28T11:23:38.368Z,34.20
2019-04-28T11:26:07.044Z,34.00
2019-04-28T11:28:37.881Z,34.20
2019-04-28T11:31:06.481Z,33.30
2019-04-28T11:33:39.778Z,33.90
2019-04-28T11:36:08.593Z,34.00
2019-04-28T11:38:37.293Z,33.20
2019-04-28T11:41:06.206Z,33.20
2019-04-28T11:43:35.030Z,33.60
2019-04-28T11:46:05.417Z,35.20
2019-04-28T11:48:34.172Z,36.80
2019-04-28T11:51:02.994Z,37.30
2019-04-28T11:53:31.673Z,36.10
2019-04-28T11:56:00.418Z,35.80
2019-04-28T11:58:29.097Z,36.10
2019-04-28T12:00:57.850Z,36.50
2019-04-28T12:03:26.517Z,36.40
2019-04-28T12:05:55.273Z,36.70
2019-04-28T12:08:23.949Z,37.30
2019-04-28T12:10:54.269Z,37.80
2019-04-28T12:13:24.658Z,37.20
2019-04-28T12:15:57.726Z,37.60
2019-04-28T12:18:44.440Z,37.80
2019-04-28T12:21:13.191Z,37.10
2019-04-28T12:23:41.874Z,37.60
2019-04-28T12:26:10.630Z,37.80
2019-04-28T12:28:39.302Z,37.40
2019-04-28T12:31:07.997Z,37.00
2019-04-28T12:33:36.680Z,37.50
2019-04-28T12:36:07.420Z,38.30
2019-04-28T12:38:36.268Z,38.00
2019-04-28T12:41:05.089Z,38.20
2019-04-28T12:43:33.850Z,38.50
2019-04-28T12:46:02.597Z,38.10
2019-04-28T12:48:32.663Z,38.10
2019-04-28T12:51:01.595Z,39.10
2019-04-28T12:53:30.361Z,38.00
2019-04-28T12:55:59.034Z,38.60
2019-04-28T12:58:27.712Z,38.30
2019-04-28T13:01:04.090Z,38.80
2019-04-28T13:03:34.478Z,37.70
2019-04-28T13:06:05.965Z,37.50
2019-04-28T13:08:34.840Z,36.90
2019-04-28T13:11:03.686Z,36.70
2019-04-28T13:13:32.370Z,35.30
2019-04-28T13:16:01.048Z,36.10
2019-04-28T13:18:29.734Z,36.90
2019-04-28T13:20:59.119Z,36.60
2019-04-28T13:23:27.856Z,36.60
2019-04-28T13:25:56.602Z,36.60
2019-04-28T13:28:25.281Z,37.00
2019-04-28T13:30:53.951Z,37.40
2019-04-28T13:33:22.699Z,36.70
2019-04-28T13:35:51.453Z,36.40
2019-04-28T13:38:20.198Z,36.00
2019-04-28T13:40:48.949Z,36.20
2019-04-28T13:43:17.551Z,36.40
2019-04-28T13:45:46.229Z,36.00
2019-04-28T13:48:15.000Z,36.00
2019-04-28T13:50:43.741Z,34.90
2019-04-28T13:53:12.579Z,34.90
2019-04-28T13:55:48.851Z,35.00
2019-04-28T13:58:19.126Z,35.30
2019-04-28T14:00:55.288Z,34.50
2019-04-28T14:03:28.657Z,33.90
2019-04-28T14:05:58.972Z,34.50
2019-04-28T14:08:27.718Z,34.90
2019-04-28T14:10:56.472Z,34.90
2019-04-28T14:13:25.248Z,34.20
2019-04-28T14:15:54.042Z,34.00
2019-04-28T14:18:22.677Z,34.60
2019-04-28T14:20:51.424Z,34.40
2019-04-28T14:23:20.090Z,33.90
2019-04-28T14:25:48.776Z,34.40
2019-04-28T14:28:17.448Z,34.20
2019-04-28T14:30:46.192Z,34.40
2019-04-28T14:33:16.376Z,34.90
2019-04-28T14:35:45.406Z,34.60
2019-04-28T14:38:14.083Z,34.80
2019-04-28T14:40:42.717Z,34.80
2019-04-28T14:43:11.351Z,34.60
2019-04-28T14:45:40.035Z,34.40
2019-04-28T14:48:08.777Z,34.20
2019-04-28T14:50:37.470Z,34.50
2019-04-28T14:53:08.673Z,34.10
2019-04-28T14:55:36.696Z,34.40
2019-04-28T14:58:05.371Z,34.30
2019-04-28T15:00:52.010Z,34.50
2019-04-28T15:03:22.247Z,35.00
2019-04-28T15:06:07.421Z,34.40
2019-04-28T15:08:55.977Z,34.90
2019-04-28T15:11:26.296Z,34.90
2019-04-28T15:13:55.498Z,35.20
2019-04-28T15:16:24.391Z,35.20
2019-04-28T15:18:53.096Z,35.40
2019-04-28T15:21:21.752Z,36.20
2019-04-28T15:23:50.429Z,35.40
2019-04-28T15:26:19.110Z,35.70
2019-04-28T15:28:47.848Z,35.40
2019-04-28T15:31:16.520Z,34.90
2019-04-28T15:33:45.277Z,34.60
2019-04-28T15:36:14.012Z,34.30
2019-04-28T15:38:42.758Z,35.00
2019-04-28T15:41:21.354Z,34.50
2019-04-28T15:43:41.823Z,34.30
2019-04-28T15:46:10.496Z,34.20
2019-04-28T15:48:39.251Z,34.30
2019-04-28T15:51:07.920Z,34.00
2019-04-28T15:53:36.864Z,34.20
2019-04-28T15:56:07.252Z,34.10
2019-04-28T15:58:37.072Z,34.20
2019-04-28T16:01:06.091Z,34.70
2019-04-28T16:03:34.837Z,34.70
2019-04-28T16:06:03.683Z,35.00
2019-04-28T16:08:32.429Z,33.90
2019-04-28T16:11:01.108Z,33.70
2019-04-28T16:13:29.806Z,34.80
2019-04-28T16:15:58.482Z,35.40
2019-04-28T16:18:27.230Z,35.30
2019-04-28T16:20:55.970Z,35.40
2019-04-28T16:23:24.643Z,34.80
2019-04-28T16:25:53.397Z,35.20
2019-04-28T16:28:23.650Z,34.90
2019-04-28T16:30:52.397Z,35.00
2019-04-28T16:33:21.074Z,34.60
2019-04-28T16:35:49.778Z,34.10
2019-04-28T16:38:18.452Z,33.90
2019-04-28T16:40:52.210Z,33.30
2019-04-28T16:43:22.823Z,32.40
2019-04-28T16:45:51.499Z,32.20
2019-04-28T16:48:20.173Z,32.60
2019-04-28T16:50:48.852Z,31.80
2019-04-28T16:53:17.527Z,31.80
2019-04-28T16:55:47.832Z,31.80
2019-04-28T16:58:20.877Z,31.40
2019-04-28T17:00:59.965Z,31.90
2019-04-28T17:03:30.277Z,31.40
2019-04-28T17:05:58.964Z,31.80
2019-04-28T17:08:27.709Z,31.90
2019-04-28T17:10:56.455Z,30.90
2019-04-28T17:13:25.191Z,30.60
2019-04-28T17:15:53.860Z,30.50
2019-04-28T17:18:22.611Z,30.20
2019-04-28T17:20:54.285Z,30.30
2019-04-28T17:23:21.610Z,30.50
2019-04-28T17:25:50.343Z,30.30
2019-04-28T17:28:19.028Z,30.00
2019-04-28T17:30:47.740Z,30.20
2019-04-28T17:33:16.379Z,30.50
2019-04-28T17:35:45.050Z,30.30
2019-04-28T17:38:13.795Z,30.20
2019-04-28T17:40:42.541Z,30.60
2019-04-28T17:43:11.222Z,30.80
2019-04-28T17:45:39.960Z,30.70
2019-04-28T17:48:19.643Z,30.80
2019-04-28T17:50:48.406Z,30.90
2019-04-28T17:53:17.081Z,30.50
2019-04-28T17:55:45.761Z,30.80
2019-04-28T17:58:14.500Z,30.70
2019-04-28T18:00:53.510Z,30.70
2019-04-28T18:03:40.072Z,31.20
2019-04-28T18:06:17.967Z,31.40
2019-04-28T18:08:46.737Z,31.10
2019-04-28T18:11:15.585Z,31.00
2019-04-28T18:13:44.259Z,31.30
2019-04-28T18:16:17.395Z,31.60
2019-04-28T18:19:03.689Z,31.90
2019-04-28T18:21:32.440Z,31.80
2019-04-28T18:24:01.185Z,31.60
2019-04-28T18:26:29.872Z,32.10
2019-04-28T18:28:58.542Z,31.80
2019-04-28T18:31:31.858Z,32.00
2019-04-28T18:34:13.742Z,31.90
2019-04-28T18:36:46.814Z,31.80
2019-04-28T18:39:25.682Z,32.00
2019-04-28T18:42:14.690Z,31.80
2019-04-28T18:44:42.704Z,32.10
2019-04-28T18:47:11.377Z,32.20
2019-04-28T18:49:40.133Z,32.30
2019-04-28T18:52:08.805Z,33.10
2019-04-28T18:54:38.778Z,32.40
2019-04-28T18:57:07.450Z,32.90
2019-04-28T18:59:36.202Z,32.60
2019-04-28T19:02:12.410Z,33.00
2019-04-28T19:04:41.244Z,32.90
2019-04-28T19:07:11.630Z,33.00
2019-04-28T19:09:41.947Z,32.90
2019-04-28T19:12:20.795Z,33.30
2019-04-28T19:14:51.178Z,33.40
2019-04-28T19:17:21.486Z,33.50
2019-04-28T19:19:50.161Z,33.40
2019-04-28T19:22:18.830Z,33.60
2019-04-28T19:24:47.518Z,33.70
2019-04-28T19:27:16.197Z,33.80
2019-04-28T19:29:44.865Z,33.80
2019-04-28T19:32:13.541Z,34.00
2019-04-28T19:34:42.284Z,34.00
2019-04-28T19:37:10.986Z,34.00
2019-04-28T19:39:40.944Z,34.30
2019-04-28T19:42:09.685Z,34.30
2019-04-28T19:44:38.364Z,34.40
2019-04-28T19:47:07.040Z,35.00
2019-04-28T19:49:35.776Z,34.60
2019-04-28T19:52:04.538Z,34.90
2019-04-28T19:54:34.846Z,35.20
2019-04-28T19:57:13.964Z,35.20
2019-04-28T20:00:00.540Z,35.40
2019-04-28T20:02:30.860Z,35.20
2019-04-28T20:04:59.532Z,35.60
2019-04-28T20:07:28.280Z,35.90
2019-04-28T20:09:56.961Z,35.80
2019-04-28T20:12:25.565Z,35.80
2019-04-28T20:14:54.173Z,35.90
2019-04-28T20:17:22.842Z,36.00
2019-04-28T20:19:51.518Z,36.30
2019-04-28T20:22:20.189Z,36.30
2019-04-28T20:24:48.800Z,36.50
2019-04-28T20:27:17.398Z,37.00
2019-04-28T20:29:46.077Z,36.60
2019-04-28T20:32:14.925Z,36.70
2019-04-28T20:34:43.600Z,37.00
2019-04-28T20:37:13.978Z,36.90
2019-04-28T20:39:44.288Z,36.90
2019-04-28T20:42:30.637Z,36.90
2019-04-28T20:44:59.327Z,37.20
2019-04-28T20:47:27.922Z,37.30
2019-04-28T20:49:56.592Z,37.30
2019-04-28T20:52:25.193Z,37.50
2019-04-28T20:54:53.858Z,37.60
2019-04-28T20:57:22.603Z,37.90
2019-04-28T20:59:51.264Z,37.50
2019-04-28T21:02:19.945Z,37.70
2019-04-28T21:04:48.624Z,38.10
2019-04-28T21:07:17.304Z,37.50
2019-04-28T21:09:45.977Z,38.30
2019-04-28T21:12:14.649Z,38.40
2019-04-28T21:14:43.391Z,38.10
2019-04-28T21:17:12.027Z,38.10
2019-04-28T21:19:40.762Z,38.40
2019-04-28T21:22:09.436Z,38.40
2019-04-28T21:24:38.107Z,38.60
2019-04-28T21:27:06.772Z,39.10
2019-04-28T21:29:35.498Z,39.10
2019-04-28T21:32:04.232Z,38.80
2019-04-28T21:34:32.913Z,39.30
2019-04-28T21:37:01.585Z,39.50
2019-04-28T21:39:30.345Z,39.00
2019-04-28T21:42:00.184Z,39.20
2019-04-28T21:44:30.493Z,39.30
2019-04-28T21:47:03.547Z,39.30
2019-04-28T21:49:33.890Z,39.60
2019-04-28T21:52:02.639Z,39.60
2019-04-28T21:54:31.309Z,39.30
2019-04-28T21:57:00.045Z,39.00
2019-04-28T21:59:29.653Z,39.20
2019-04-28T22:01:58.465Z,39.20
2019-04-28T22:04:27.412Z,39.30
2019-04-28T22:06:56.212Z,39.30
2019-04-28T22:09:25.024Z,39.30
2019-04-28T22:11:53.774Z,39.80
2019-04-28T22:14:22.513Z,40.00
2019-04-28T22:16:51.192Z,39.80
2019-04-28T22:19:20.233Z,39.80
2019-04-28T22:21:48.984Z,39.70
2019-04-28T22:24:19.284Z,39.70
2019-04-28T22:26:52.516Z,39.40
2019-04-28T22:29:21.328Z,39.30
2019-04-28T22:31:50.141Z,39.40
2019-04-28T22:34:18.881Z,40.00
2019-04-28T22:36:47.727Z,39.50
2019-04-28T22:39:16.471Z,39.30
2019-04-28T22:41:45.211Z,39.30
2019-04-28T22:44:13.952Z,39.40
2019-04-28T22:46:42.694Z,39.30
2019-04-28T22:49:11.436Z,39.40
2019-04-28T22:51:40.108Z,39.80
2019-04-28T22:54:13.453Z,39.90
2019-04-28T22:56:43.960Z,39.80
2019-04-28T22:59:16.785Z,40.00
2019-04-28T23:01:47.164Z,40.10
2019-04-28T23:04:23.715Z,40.00
2019-04-28T23:06:52.520Z,40.20
2019-04-28T23:09:21.637Z,40.60
2019-04-28T23:11:50.364Z,40.40
2019-04-28T23:14:19.113Z,41.50
2019-04-28T23:16:47.948Z,40.90
2019-04-28T23:19:18.248Z,41.10
2019-04-28T23:21:54.373Z,41.10
2019-04-28T23:24:23.211Z,40.50
2019-04-28T23:26:51.949Z,40.80
2019-04-28T23:29:20.751Z,41.00
2019-04-28T23:31:49.382Z,41.30
2019-04-28T23:34:18.045Z,41.30
2019-04-28T23:36:46.718Z,41.10
2019-04-28T23:39:15.449Z,41.20
2019-04-28T23:41:48.913Z,41.50
2019-04-28T23:44:17.649Z,41.70
2019-04-28T23:46:57.000Z,41.30
2019-04-28T23:49:26.833Z,41.60
2019-04-28T23:52:15.501Z,41.80
2019-04-28T23:54:51.868Z,41.80
2019-04-28T23:57:20.533Z,41.80
2019-04-28T23:59:49.198Z,41.90
